sensor_id;sensor_type;location;lat;lon;timestamp;temperature;humidity
33594;DHT22;19920;52.242;20.940;2022-08-11T00:01:23;15.60;99.90
33594;DHT22;19920;52.242;20.940;2022-08-11T00:03:53;15.60;99.90
33594;DHT22;19920;52.242;20.940;2022-08-11T00:06:35;15.60;99.90
33594;DHT22;19920;52.242;20.940;2022-08-11T00:09:02;15.60;99.90
33594;DHT22;19920;52.242;20.940;2022-08-11T00:11:36;15.60;99.90
33594;DHT22;19920;52.242;20.940;2022-08-11T00:14:02;15.50;99.90
33594;DHT22;19920;52.242;20.940;2022-08-11T00:16:28;15.50;99.90
33594;DHT22;19920;52.242;20.940;2022-08-11T00:18:55;15.50;99.90
33594;DHT22;19920;52.242;20.940;2022-08-11T00:21:21;15.50;99.90
33594;DHT22;19920;52.242;20.940;2022-08-11T00:23:57;15.40;99.90
33594;DHT22;19920;52.242;20.940;2022-08-11T00:26:24;15.40;99.90
33594;DHT22;19920;52.242;20.940;2022-08-11T00:28:50;15.40;99.90
33594;DHT22;19920;52.242;20.940;2022-08-11T00:31:27;15.40;99.90
33594;DHT22;19920;52.242;20.940;2022-08-11T00:33:53;15.30;99.90
33594;DHT22;19920;52.242;20.940;2022-08-11T00:36:19;15.30;99.90
33594;DHT22;19920;52.242;20.940;2022-08-11T00:38:48;15.30;99.90
33594;DHT22;19920;52.242;20.940;2022-08-11T00:57:21;15.10;99.90
33594;DHT22;19920;52.242;20.940;2022-08-11T01:02:24;15.10;99.90
33594;DHT22;19920;52.242;20.940;2022-08-11T01:10:13;15.00;99.90
33594;DHT22;19920;52.242;20.940;2022-08-11T01:12:57;15.00;99.90
33594;DHT22;19920;52.242;20.940;2022-08-11T01:48:03;15.00;99.90
33594;DHT22;19920;52.242;20.940;2022-08-11T01:58:32;15.00;99.90
33594;DHT22;19920;52.242;20.940;2022-08-11T02:01:03;14.90;99.90
33594;DHT22;19920;52.242;20.940;2022-08-11T02:11:44;14.80;99.90
33594;DHT22;19920;52.242;20.940;2022-08-11T02:19:13;14.80;99.90
33594;DHT22;19920;52.242;20.940;2022-08-11T02:22:05;14.80;99.90
33594;DHT22;19920;52.242;20.940;2022-08-11T02:24:55;14.70;99.90
33594;DHT22;19920;52.242;20.940;2022-08-11T02:27:22;14.70;99.90
33594;DHT22;19920;52.242;20.940;2022-08-11T02:32:23;14.60;99.90
33594;DHT22;19920;52.242;20.940;2022-08-11T02:48:01;14.50;99.90
33594;DHT22;19920;52.242;20.940;2022-08-11T02:51:09;14.50;99.90
33594;DHT22;19920;52.242;20.940;2022-08-11T02:53:48;14.50;99.90
33594;DHT22;19920;52.242;20.940;2022-08-11T03:01:18;14.50;99.90
33594;DHT22;19920;52.242;20.940;2022-08-11T03:03:49;14.50;99.90
33594;DHT22;19920;52.242;20.940;2022-08-11T03:06:26;14.50;99.90
33594;DHT22;19920;52.242;20.940;2022-08-11T03:11:41;14.60;99.90
33594;DHT22;19920;52.242;20.940;2022-08-11T03:17:29;14.50;99.90
33594;DHT22;19920;52.242;20.940;2022-08-11T03:28:19;14.50;99.90
33594;DHT22;19920;52.242;20.940;2022-08-11T03:30:47;14.50;99.90
33594;DHT22;19920;52.242;20.940;2022-08-11T03:33:28;14.50;99.90
33594;DHT22;19920;52.242;20.940;2022-08-11T03:39:00;14.60;99.90
33594;DHT22;19920;52.242;20.940;2022-08-11T03:49:22;14.80;99.90
33594;DHT22;19920;52.242;20.940;2022-08-11T03:51:56;14.80;99.90
33594;DHT22;19920;52.242;20.940;2022-08-11T03:54:27;14.80;99.90
33594;DHT22;19920;52.242;20.940;2022-08-11T04:02:07;14.90;99.90
33594;DHT22;19920;52.242;20.940;2022-08-11T04:23:06;15.30;99.90
33594;DHT22;19920;52.242;20.940;2022-08-11T04:35:49;15.50;99.90
33594;DHT22;19920;52.242;20.940;2022-08-11T04:46:11;15.80;99.90
33594;DHT22;19920;52.242;20.940;2022-08-11T04:51:46;15.90;99.90
33594;DHT22;19920;52.242;20.940;2022-08-11T04:57:36;16.00;99.90
33594;DHT22;19920;52.242;20.940;2022-08-11T05:00:24;16.10;99.90
33594;DHT22;19920;52.242;20.940;2022-08-11T05:03:19;16.20;99.90
33594;DHT22;19920;52.242;20.940;2022-08-11T05:11:10;16.50;99.90
33594;DHT22;19920;52.242;20.940;2022-08-11T05:13:45;16.60;99.90
33594;DHT22;19920;52.242;20.940;2022-08-11T05:16:40;16.70;99.90
33594;DHT22;19920;52.242;20.940;2022-08-11T05:19:25;16.70;99.90
33594;DHT22;19920;52.242;20.940;2022-08-11T05:22:10;16.80;99.90
33594;DHT22;19920;52.242;20.940;2022-08-11T05:25:10;16.90;99.90
33594;DHT22;19920;52.242;20.940;2022-08-11T05:30:39;17.00;99.90
33594;DHT22;19920;52.242;20.940;2022-08-11T05:33:35;17.10;99.90
33594;DHT22;19920;52.242;20.940;2022-08-11T05:38:49;17.30;99.90
33594;DHT22;19920;52.242;20.940;2022-08-11T05:41:37;17.40;99.90
33594;DHT22;19920;52.242;20.940;2022-08-11T05:44:21;17.40;99.90
33594;DHT22;19920;52.242;20.940;2022-08-11T05:47:06;17.50;99.90
33594;DHT22;19920;52.242;20.940;2022-08-11T05:49:50;17.60;99.90
33594;DHT22;19920;52.242;20.940;2022-08-11T05:52:34;17.70;99.90
33594;DHT22;19920;52.242;20.940;2022-08-11T05:55:19;17.80;99.90
33594;DHT22;19920;52.242;20.940;2022-08-11T05:58:07;17.90;99.90
33594;DHT22;19920;52.242;20.940;2022-08-11T06:00:44;17.90;99.90
33594;DHT22;19920;52.242;20.940;2022-08-11T06:03:10;18.00;99.90
33594;DHT22;19920;52.242;20.940;2022-08-11T06:05:37;18.20;99.90
33594;DHT22;19920;52.242;20.940;2022-08-11T06:08:05;18.20;99.90
33594;DHT22;19920;52.242;20.940;2022-08-11T06:10:32;18.40;99.90
33594;DHT22;19920;52.242;20.940;2022-08-11T06:12:58;18.40;99.90
33594;DHT22;19920;52.242;20.940;2022-08-11T06:15:29;18.40;99.90
33594;DHT22;19920;52.242;20.940;2022-08-11T06:17:55;18.60;99.90
33594;DHT22;19920;52.242;20.940;2022-08-11T06:20:23;18.70;99.90
33594;DHT22;19920;52.242;20.940;2022-08-11T06:22:56;18.70;99.90
33594;DHT22;19920;52.242;20.940;2022-08-11T06:25:29;18.80;99.90
33594;DHT22;19920;52.242;20.940;2022-08-11T06:27:54;18.80;99.90
33594;DHT22;19920;52.242;20.940;2022-08-11T06:30:31;18.90;99.90
33594;DHT22;19920;52.242;20.940;2022-08-11T06:32:57;19.10;99.90
33594;DHT22;19920;52.242;20.940;2022-08-11T06:40:42;19.30;99.90
33594;DHT22;19920;52.242;20.940;2022-08-11T06:43:30;19.40;99.90
33594;DHT22;19920;52.242;20.940;2022-08-11T06:46:02;19.50;99.90
33594;DHT22;19920;52.242;20.940;2022-08-11T06:48:30;19.60;99.90
33594;DHT22;19920;52.242;20.940;2022-08-11T06:50:58;19.70;99.90
33594;DHT22;19920;52.242;20.940;2022-08-11T06:53:46;19.70;99.90
33594;DHT22;19920;52.242;20.940;2022-08-11T06:56:13;19.80;99.90
33594;DHT22;19920;52.242;20.940;2022-08-11T06:58:58;19.90;99.90
33594;DHT22;19920;52.242;20.940;2022-08-11T07:04:29;20.00;99.90
33594;DHT22;19920;52.242;20.940;2022-08-11T07:12:49;20.20;99.90
33594;DHT22;19920;52.242;20.940;2022-08-11T07:15:34;20.30;99.90
33594;DHT22;19920;52.242;20.940;2022-08-11T07:18:06;20.40;99.90
33594;DHT22;19920;52.242;20.940;2022-08-11T07:20:51;20.50;99.90
33594;DHT22;19920;52.242;20.940;2022-08-11T07:23:36;20.60;99.90
33594;DHT22;19920;52.242;20.940;2022-08-11T07:26:21;20.60;99.90
33594;DHT22;19920;52.242;20.940;2022-08-11T07:29:07;20.70;99.90
33594;DHT22;19920;52.242;20.940;2022-08-11T07:36:36;20.90;99.90
33594;DHT22;19920;52.242;20.940;2022-08-11T07:39:03;21.10;99.90
33594;DHT22;19920;52.242;20.940;2022-08-11T07:41:33;21.20;99.90
33594;DHT22;19920;52.242;20.940;2022-08-11T07:43:58;21.20;99.90
33594;DHT22;19920;52.242;20.940;2022-08-11T07:46:40;21.30;99.90
33594;DHT22;19920;52.242;20.940;2022-08-11T07:49:24;21.40;99.90
33594;DHT22;19920;52.242;20.940;2022-08-11T07:52:09;21.40;99.90
33594;DHT22;19920;52.242;20.940;2022-08-11T07:54:57;21.50;99.90
33594;DHT22;19920;52.242;20.940;2022-08-11T07:57:24;21.50;99.90
33594;DHT22;19920;52.242;20.940;2022-08-11T08:00:08;21.60;99.90
33594;DHT22;19920;52.242;20.940;2022-08-11T08:02:53;21.70;99.90
33594;DHT22;19920;52.242;20.940;2022-08-11T08:05:37;21.70;99.90
33594;DHT22;19920;52.242;20.940;2022-08-11T08:08:21;21.80;99.90
33594;DHT22;19920;52.242;20.940;2022-08-11T08:11:05;21.80;99.90
33594;DHT22;19920;52.242;20.940;2022-08-11T08:13:50;21.90;99.90
33594;DHT22;19920;52.242;20.940;2022-08-11T08:16:35;21.90;99.90
33594;DHT22;19920;52.242;20.940;2022-08-11T08:19:20;22.00;99.90
33594;DHT22;19920;52.242;20.940;2022-08-11T08:21:45;21.90;99.90
33594;DHT22;19920;52.242;20.940;2022-08-11T08:24:11;21.90;99.90
33594;DHT22;19920;52.242;20.940;2022-08-11T08:26:37;22.10;99.90
33594;DHT22;19920;52.242;20.940;2022-08-11T08:29:22;22.10;99.90
33594;DHT22;19920;52.242;20.940;2022-08-11T08:32:07;22.10;99.90
33594;DHT22;19920;52.242;20.940;2022-08-11T08:34:34;22.10;99.90
33594;DHT22;19920;52.242;20.940;2022-08-11T08:36:59;22.30;99.90
33594;DHT22;19920;52.242;20.940;2022-08-11T08:39:25;22.30;99.90
33594;DHT22;19920;52.242;20.940;2022-08-11T08:41:54;22.60;99.90
33594;DHT22;19920;52.242;20.940;2022-08-11T08:44:20;22.60;99.90
33594;DHT22;19920;52.242;20.940;2022-08-11T08:46:47;22.60;99.90
33594;DHT22;19920;52.242;20.940;2022-08-11T08:49:14;22.60;99.90
33594;DHT22;19920;52.242;20.940;2022-08-11T08:51:40;22.60;99.90
33594;DHT22;19920;52.242;20.940;2022-08-11T08:54:15;22.70;99.90
33594;DHT22;19920;52.242;20.940;2022-08-11T08:56:41;22.80;99.90
33594;DHT22;19920;52.242;20.940;2022-08-11T08:59:08;22.80;99.90
33594;DHT22;19920;52.242;20.940;2022-08-11T09:01:35;22.70;99.90
33594;DHT22;19920;52.242;20.940;2022-08-11T09:04:06;22.70;99.90
33594;DHT22;19920;52.242;20.940;2022-08-11T09:06:32;22.80;99.90
33594;DHT22;19920;52.242;20.940;2022-08-11T09:08:58;23.00;99.90
33594;DHT22;19920;52.242;20.940;2022-08-11T09:11:24;23.00;99.90
33594;DHT22;19920;52.242;20.940;2022-08-11T09:14:09;22.90;99.90
33594;DHT22;19920;52.242;20.940;2022-08-11T09:16:35;23.10;99.90
33594;DHT22;19920;52.242;20.940;2022-08-11T09:19:01;23.10;99.90
33594;DHT22;19920;52.242;20.940;2022-08-11T09:21:27;23.00;99.90
33594;DHT22;19920;52.242;20.940;2022-08-11T09:23:52;23.20;99.90
33594;DHT22;19920;52.242;20.940;2022-08-11T09:26:38;23.30;99.90
33594;DHT22;19920;52.242;20.940;2022-08-11T09:29:23;23.50;99.90
33594;DHT22;19920;52.242;20.940;2022-08-11T09:31:48;23.60;99.90
33594;DHT22;19920;52.242;20.940;2022-08-11T09:34:14;23.60;99.90
33594;DHT22;19920;52.242;20.940;2022-08-11T09:36:41;23.70;99.90
33594;DHT22;19920;52.242;20.940;2022-08-11T09:39:27;23.70;99.90
33594;DHT22;19920;52.242;20.940;2022-08-11T09:42:11;23.70;99.90
33594;DHT22;19920;52.242;20.940;2022-08-11T09:44:37;23.70;99.90
33594;DHT22;19920;52.242;20.940;2022-08-11T09:47:25;23.80;99.90
33594;DHT22;19920;52.242;20.940;2022-08-11T09:49:52;23.90;99.90
33594;DHT22;19920;52.242;20.940;2022-08-11T09:52:19;23.90;99.90
33594;DHT22;19920;52.242;20.940;2022-08-11T09:54:46;24.00;99.90
33594;DHT22;19920;52.242;20.940;2022-08-11T09:57:12;24.00;99.90
33594;DHT22;19920;52.242;20.940;2022-08-11T09:59:57;23.90;99.90
33594;DHT22;19920;52.242;20.940;2022-08-11T10:02:24;24.10;99.90
33594;DHT22;19920;52.242;20.940;2022-08-11T10:04:51;24.30;99.90
33594;DHT22;19920;52.242;20.940;2022-08-11T10:07:38;24.60;99.90
33594;DHT22;19920;52.242;20.940;2022-08-11T10:10:05;24.90;99.90
33594;DHT22;19920;52.242;20.940;2022-08-11T10:12:32;25.00;99.90
33594;DHT22;19920;52.242;20.940;2022-08-11T10:15:00;25.00;99.90
33594;DHT22;19920;52.242;20.940;2022-08-11T10:17:46;24.80;99.90
33594;DHT22;19920;52.242;20.940;2022-08-11T10:20:32;24.50;99.90
33594;DHT22;19920;52.242;20.940;2022-08-11T10:22:58;24.50;99.90
33594;DHT22;19920;52.242;20.940;2022-08-11T10:25:42;24.70;99.90
33594;DHT22;19920;52.242;20.940;2022-08-11T10:28:27;24.80;99.90
33594;DHT22;19920;52.242;20.940;2022-08-11T10:30:53;24.90;99.90
33594;DHT22;19920;52.242;20.940;2022-08-11T10:33:37;24.90;99.90
33594;DHT22;19920;52.242;20.940;2022-08-11T10:36:21;25.00;99.90
33594;DHT22;19920;52.242;20.940;2022-08-11T10:38:47;25.10;99.90
33594;DHT22;19920;52.242;20.940;2022-08-11T10:41:15;25.00;99.90
33594;DHT22;19920;52.242;20.940;2022-08-11T10:44:00;25.10;99.90
33594;DHT22;19920;52.242;20.940;2022-08-11T10:46:26;25.30;99.90
33594;DHT22;19920;52.242;20.940;2022-08-11T10:49:10;25.10;99.90
33594;DHT22;19920;52.242;20.940;2022-08-11T10:51:36;25.10;99.90
33594;DHT22;19920;52.242;20.940;2022-08-11T10:54:20;25.20;99.90
33594;DHT22;19920;52.242;20.940;2022-08-11T10:57:05;25.30;99.90
33594;DHT22;19920;52.242;20.940;2022-08-11T10:59:49;25.50;99.90
33594;DHT22;19920;52.242;20.940;2022-08-11T11:02:15;25.60;99.90
33594;DHT22;19920;52.242;20.940;2022-08-11T11:04:51;25.60;99.90
33594;DHT22;19920;52.242;20.940;2022-08-11T11:07:23;25.60;99.90
33594;DHT22;19920;52.242;20.940;2022-08-11T11:09:55;25.40;99.90
33594;DHT22;19920;52.242;20.940;2022-08-11T11:12:29;25.40;99.90
33594;DHT22;19920;52.242;20.940;2022-08-11T11:15:15;25.30;99.90
33594;DHT22;19920;52.242;20.940;2022-08-11T11:18:03;25.10;99.90
33594;DHT22;19920;52.242;20.940;2022-08-11T11:20:35;25.00;99.90
33594;DHT22;19920;52.242;20.940;2022-08-11T11:23:11;24.90;99.90
33594;DHT22;19920;52.242;20.940;2022-08-11T11:36:30;25.10;99.90
33594;DHT22;19920;52.242;20.940;2022-08-11T11:39:00;25.10;99.90
33594;DHT22;19920;52.242;20.940;2022-08-11T11:41:26;25.20;99.90
33594;DHT22;19920;52.242;20.940;2022-08-11T11:43:56;25.20;99.90
33594;DHT22;19920;52.242;20.940;2022-08-11T11:46:23;25.10;99.90
33594;DHT22;19920;52.242;20.940;2022-08-11T11:48:51;25.20;99.90
33594;DHT22;19920;52.242;20.940;2022-08-11T11:51:16;25.10;99.90
33594;DHT22;19920;52.242;20.940;2022-08-11T11:53:42;25.10;99.90
33594;DHT22;19920;52.242;20.940;2022-08-11T11:56:10;24.90;99.90
33594;DHT22;19920;52.242;20.940;2022-08-11T11:58:36;25.00;99.90
33594;DHT22;19920;52.242;20.940;2022-08-11T12:01:21;25.20;99.90
33594;DHT22;19920;52.242;20.940;2022-08-11T12:03:50;25.60;99.90
33594;DHT22;19920;52.242;20.940;2022-08-11T12:06:16;25.90;99.90
33594;DHT22;19920;52.242;20.940;2022-08-11T12:08:43;26.20;99.90
33594;DHT22;19920;52.242;20.940;2022-08-11T12:11:10;26.70;99.90
33594;DHT22;19920;52.242;20.940;2022-08-11T12:13:56;27.00;99.90
33594;DHT22;19920;52.242;20.940;2022-08-11T12:16:22;27.10;99.90
33594;DHT22;19920;52.242;20.940;2022-08-11T12:18:48;27.00;99.90
33594;DHT22;19920;52.242;20.940;2022-08-11T12:21:15;26.60;99.90
33594;DHT22;19920;52.242;20.940;2022-08-11T12:23:41;26.30;99.90
33594;DHT22;19920;52.242;20.940;2022-08-11T12:26:26;26.10;99.90
33594;DHT22;19920;52.242;20.940;2022-08-11T12:29:11;25.80;99.90
33594;DHT22;19920;52.242;20.940;2022-08-11T12:31:37;25.70;99.90
33594;DHT22;19920;52.242;20.940;2022-08-11T12:34:04;25.50;99.90
33594;DHT22;19920;52.242;20.940;2022-08-11T12:36:32;25.30;99.90
33594;DHT22;19920;52.242;20.940;2022-08-11T12:38:57;25.20;99.90
33594;DHT22;19920;52.242;20.940;2022-08-11T12:41:24;25.00;99.90
33594;DHT22;19920;52.242;20.940;2022-08-11T12:44:08;25.00;99.90
33594;DHT22;19920;52.242;20.940;2022-08-11T12:46:53;25.10;99.90
33594;DHT22;19920;52.242;20.940;2022-08-11T12:49:21;25.40;99.90
33594;DHT22;19920;52.242;20.940;2022-08-11T12:52:09;25.80;99.90
33594;DHT22;19920;52.242;20.940;2022-08-11T12:57:09;27.00;99.90
33594;DHT22;19920;52.242;20.940;2022-08-11T12:59:55;27.50;99.90
33594;DHT22;19920;52.242;20.940;2022-08-11T13:02:40;27.90;99.90
33594;DHT22;19920;52.242;20.940;2022-08-11T13:05:24;27.80;99.90
33594;DHT22;19920;52.242;20.940;2022-08-11T13:07:50;27.90;99.90
33594;DHT22;19920;52.242;20.940;2022-08-11T13:10:16;27.50;99.90
33594;DHT22;19920;52.242;20.940;2022-08-11T13:13:06;27.00;99.90
33594;DHT22;19920;52.242;20.940;2022-08-11T13:15:32;26.50;99.90
33594;DHT22;19920;52.242;20.940;2022-08-11T13:17:58;26.30;99.90
33594;DHT22;19920;52.242;20.940;2022-08-11T13:20:23;26.50;99.90
33594;DHT22;19920;52.242;20.940;2022-08-11T13:22:53;26.80;99.90
33594;DHT22;19920;52.242;20.940;2022-08-11T13:25:23;27.10;99.90
33594;DHT22;19920;52.242;20.940;2022-08-11T13:27:52;27.20;99.90
33594;DHT22;19920;52.242;20.940;2022-08-11T13:30:18;26.90;99.90
33594;DHT22;19920;52.242;20.940;2022-08-11T13:33:03;26.60;99.90
33594;DHT22;19920;52.242;20.940;2022-08-11T13:35:29;26.40;99.90
33594;DHT22;19920;52.242;20.940;2022-08-11T13:37:56;26.20;99.90
33594;DHT22;19920;52.242;20.940;2022-08-11T13:40:22;26.10;99.90
33594;DHT22;19920;52.242;20.940;2022-08-11T13:42:50;26.30;99.90
33594;DHT22;19920;52.242;20.940;2022-08-11T13:45:17;26.80;99.90
33594;DHT22;19920;52.242;20.940;2022-08-11T13:47:42;27.50;99.90
33594;DHT22;19920;52.242;20.940;2022-08-11T13:50:09;28.20;99.90
33594;DHT22;19920;52.242;20.940;2022-08-11T13:52:36;28.50;99.90
33594;DHT22;19920;52.242;20.940;2022-08-11T13:55:05;28.80;99.90
33594;DHT22;19920;52.242;20.940;2022-08-11T13:57:31;28.80;99.90
33594;DHT22;19920;52.242;20.940;2022-08-11T13:59:58;29.00;99.90
33594;DHT22;19920;52.242;20.940;2022-08-11T14:02:35;29.00;99.90
33594;DHT22;19920;52.242;20.940;2022-08-11T14:05:04;28.90;99.90
33594;DHT22;19920;52.242;20.940;2022-08-11T14:07:32;29.30;99.90
33594;DHT22;19920;52.242;20.940;2022-08-11T14:09:58;29.30;99.90
33594;DHT22;19920;52.242;20.940;2022-08-11T14:12:31;29.20;99.90
33594;DHT22;19920;52.242;20.940;2022-08-11T14:15:18;29.40;99.90
33594;DHT22;19920;52.242;20.940;2022-08-11T14:17:46;29.90;99.90
33594;DHT22;19920;52.242;20.940;2022-08-11T14:20:15;30.60;99.90
33594;DHT22;19920;52.242;20.940;2022-08-11T14:22:41;30.70;99.90
33594;DHT22;19920;52.242;20.940;2022-08-11T14:25:07;30.40;99.90
33594;DHT22;19920;52.242;20.940;2022-08-11T14:27:33;30.20;99.90
33594;DHT22;19920;52.242;20.940;2022-08-11T14:29:59;29.90;99.90
33594;DHT22;19920;52.242;20.940;2022-08-11T14:32:25;29.70;99.90
33594;DHT22;19920;52.242;20.940;2022-08-11T14:34:51;29.40;99.90
33594;DHT22;19920;52.242;20.940;2022-08-11T14:37:22;29.20;99.90
33594;DHT22;19920;52.242;20.940;2022-08-11T14:39:50;29.00;99.90
33594;DHT22;19920;52.242;20.940;2022-08-11T14:42:17;28.50;99.90
33594;DHT22;19920;52.242;20.940;2022-08-11T14:45:03;28.30;99.90
33594;DHT22;19920;52.242;20.940;2022-08-11T14:47:49;28.10;99.90
33594;DHT22;19920;52.242;20.940;2022-08-11T14:50:16;28.50;99.90
33594;DHT22;19920;52.242;20.940;2022-08-11T14:52:44;30.10;99.90
33594;DHT22;19920;52.242;20.940;2022-08-11T14:55:13;30.20;99.90
33594;DHT22;19920;52.242;20.940;2022-08-11T14:57:58;30.10;99.90
33594;DHT22;19920;52.242;20.940;2022-08-11T15:00:24;31.10;99.90
33594;DHT22;19920;52.242;20.940;2022-08-11T15:02:50;31.00;99.90
33594;DHT22;19920;52.242;20.940;2022-08-11T15:05:35;30.70;99.90
33594;DHT22;19920;52.242;20.940;2022-08-11T15:08:00;29.70;99.90
33594;DHT22;19920;52.242;20.940;2022-08-11T15:10:26;28.60;99.90
33594;DHT22;19920;52.242;20.940;2022-08-11T15:12:52;27.70;99.90
33594;DHT22;19920;52.242;20.940;2022-08-11T15:15:18;26.90;99.90
33594;DHT22;19920;52.242;20.940;2022-08-11T15:18:04;26.60;99.90
33594;DHT22;19920;52.242;20.940;2022-08-11T15:20:30;26.20;99.90
33594;DHT22;19920;52.242;20.940;2022-08-11T15:23:14;26.10;99.90
33594;DHT22;19920;52.242;20.940;2022-08-11T15:26:03;25.80;99.90
33594;DHT22;19920;52.242;20.940;2022-08-11T15:28:30;25.70;99.90
33594;DHT22;19920;52.242;20.940;2022-08-11T15:31:15;26.50;99.90
33594;DHT22;19920;52.242;20.940;2022-08-11T15:34:07;28.30;99.90
33594;DHT22;19920;52.242;20.940;2022-08-11T15:36:56;30.40;99.90
33594;DHT22;19920;52.242;20.940;2022-08-11T15:39:46;31.60;99.90
33594;DHT22;19920;52.242;20.940;2022-08-11T15:42:32;32.00;99.90
33594;DHT22;19920;52.242;20.940;2022-08-11T15:45:16;31.60;99.90
33594;DHT22;19920;52.242;20.940;2022-08-11T15:48:05;32.10;99.90
33594;DHT22;19920;52.242;20.940;2022-08-11T15:50:32;32.40;99.90
33594;DHT22;19920;52.242;20.940;2022-08-11T15:53:01;33.10;99.90
33594;DHT22;19920;52.242;20.940;2022-08-11T15:55:27;33.50;99.90
33594;DHT22;19920;52.242;20.940;2022-08-11T15:57:54;33.90;99.90
33594;DHT22;19920;52.242;20.940;2022-08-11T16:00:40;34.00;99.90
33594;DHT22;19920;52.242;20.940;2022-08-11T16:03:26;33.40;99.50
33594;DHT22;19920;52.242;20.940;2022-08-11T16:06:11;33.10;99.60
33594;DHT22;19920;52.242;20.940;2022-08-11T16:08:39;32.80;99.90
33594;DHT22;19920;52.242;20.940;2022-08-11T16:11:04;33.20;99.90
33594;DHT22;19920;52.242;20.940;2022-08-11T16:13:31;32.90;99.90
33594;DHT22;19920;52.242;20.940;2022-08-11T16:15:57;33.40;99.90
33594;DHT22;19920;52.242;20.940;2022-08-11T16:21:11;33.90;99.90
33594;DHT22;19920;52.242;20.940;2022-08-11T16:23:38;33.70;99.60
33594;DHT22;19920;52.242;20.940;2022-08-11T16:26:04;33.50;99.00
33594;DHT22;19920;52.242;20.940;2022-08-11T16:28:30;32.90;99.00
33594;DHT22;19920;52.242;20.940;2022-08-11T16:30:58;31.40;99.90
33594;DHT22;19920;52.242;20.940;2022-08-11T16:33:24;29.60;99.90
33594;DHT22;19920;52.242;20.940;2022-08-11T16:35:50;28.10;99.90
33594;DHT22;19920;52.242;20.940;2022-08-11T16:38:35;26.90;99.90
33594;DHT22;19920;52.242;20.940;2022-08-11T16:41:05;26.20;99.90
33594;DHT22;19920;52.242;20.940;2022-08-11T16:43:33;25.50;99.90
33594;DHT22;19920;52.242;20.940;2022-08-11T16:46:18;25.10;99.90
33594;DHT22;19920;52.242;20.940;2022-08-11T16:49:07;24.70;99.90
33594;DHT22;19920;52.242;20.940;2022-08-11T16:51:34;24.50;99.90
33594;DHT22;19920;52.242;20.940;2022-08-11T16:54:00;24.30;99.90
33594;DHT22;19920;52.242;20.940;2022-08-11T16:56:27;24.20;99.90
33594;DHT22;19920;52.242;20.940;2022-08-11T16:58:54;24.10;99.90
33594;DHT22;19920;52.242;20.940;2022-08-11T17:01:52;23.80;99.90
33594;DHT22;19920;52.242;20.940;2022-08-11T17:04:29;23.60;99.90
33594;DHT22;19920;52.242;20.940;2022-08-11T17:07:15;23.60;99.90
33594;DHT22;19920;52.242;20.940;2022-08-11T17:09:41;23.50;99.90
33594;DHT22;19920;52.242;20.940;2022-08-11T17:12:29;23.30;99.90
33594;DHT22;19920;52.242;20.940;2022-08-11T17:15:16;23.10;99.90
33594;DHT22;19920;52.242;20.940;2022-08-11T17:18:01;22.90;99.90
33594;DHT22;19920;52.242;20.940;2022-08-11T17:20:27;22.70;99.90
33594;DHT22;19920;52.242;20.940;2022-08-11T17:22:54;22.50;99.90
33594;DHT22;19920;52.242;20.940;2022-08-11T17:25:38;22.30;99.90
33594;DHT22;19920;52.242;20.940;2022-08-11T17:28:04;22.20;99.90
33594;DHT22;19920;52.242;20.940;2022-08-11T17:30:30;22.00;99.90
33594;DHT22;19920;52.242;20.940;2022-08-11T17:33:15;21.90;99.90
33594;DHT22;19920;52.242;20.940;2022-08-11T17:36:00;21.80;99.90
33594;DHT22;19920;52.242;20.940;2022-08-11T17:38:27;21.70;99.90
33594;DHT22;19920;52.242;20.940;2022-08-11T17:40:56;21.60;99.90
33594;DHT22;19920;52.242;20.940;2022-08-11T17:43:42;21.60;99.90
33594;DHT22;19920;52.242;20.940;2022-08-11T17:46:41;21.50;99.90
33594;DHT22;19920;52.242;20.940;2022-08-11T17:49:25;21.40;99.90
33594;DHT22;19920;52.242;20.940;2022-08-11T17:51:52;21.30;99.90
33594;DHT22;19920;52.242;20.940;2022-08-11T17:54:36;21.10;99.90
33594;DHT22;19920;52.242;20.940;2022-08-11T17:57:22;21.10;99.90
33594;DHT22;19920;52.242;20.940;2022-08-11T18:00:07;20.90;99.90
33594;DHT22;19920;52.242;20.940;2022-08-11T18:02:34;20.80;99.90
33594;DHT22;19920;52.242;20.940;2022-08-11T18:05:19;20.70;99.90
33594;DHT22;19920;52.242;20.940;2022-08-11T18:07:46;20.70;99.90
33594;DHT22;19920;52.242;20.940;2022-08-11T18:10:31;20.60;99.90
33594;DHT22;19920;52.242;20.940;2022-08-11T18:13:20;20.60;99.90
33594;DHT22;19920;52.242;20.940;2022-08-11T18:16:05;20.50;99.90
33594;DHT22;19920;52.242;20.940;2022-08-11T18:18:49;20.50;99.90
33594;DHT22;19920;52.242;20.940;2022-08-11T18:21:34;20.50;99.90
33594;DHT22;19920;52.242;20.940;2022-08-11T18:24:19;20.40;99.90
33594;DHT22;19920;52.242;20.940;2022-08-11T18:27:04;20.40;99.90
33594;DHT22;19920;52.242;20.940;2022-08-11T18:29:50;20.40;99.90
33594;DHT22;19920;52.242;20.940;2022-08-11T18:32:35;20.40;99.90
33594;DHT22;19920;52.242;20.940;2022-08-11T18:35:21;20.40;99.90
33594;DHT22;19920;52.242;20.940;2022-08-11T18:38:08;20.40;99.90
33594;DHT22;19920;52.242;20.940;2022-08-11T18:40:53;20.50;99.90
33594;DHT22;19920;52.242;20.940;2022-08-11T18:43:38;20.50;99.90
33594;DHT22;19920;52.242;20.940;2022-08-11T18:46:24;20.50;99.90
33594;DHT22;19920;52.242;20.940;2022-08-11T18:49:16;20.50;99.90
33594;DHT22;19920;52.242;20.940;2022-08-11T18:52:01;20.50;99.90
33594;DHT22;19920;52.242;20.940;2022-08-11T18:54:46;20.60;99.90
33594;DHT22;19920;52.242;20.940;2022-08-11T18:57:32;20.60;99.90
33594;DHT22;19920;52.242;20.940;2022-08-11T19:00:17;20.50;99.90
33594;DHT22;19920;52.242;20.940;2022-08-11T19:03:02;20.50;99.90
33594;DHT22;19920;52.242;20.940;2022-08-11T19:05:48;20.40;99.90
33594;DHT22;19920;52.242;20.940;2022-08-11T19:08:45;20.40;99.90
33594;DHT22;19920;52.242;20.940;2022-08-11T19:11:29;20.30;99.90
33594;DHT22;19920;52.242;20.940;2022-08-11T19:14:14;20.30;99.90
33594;DHT22;19920;52.242;20.940;2022-08-11T19:16:59;20.20;99.90
33594;DHT22;19920;52.242;20.940;2022-08-11T19:19:44;20.20;99.90
33594;DHT22;19920;52.242;20.940;2022-08-11T19:22:29;20.20;99.90
33594;DHT22;19920;52.242;20.940;2022-08-11T19:25:14;20.20;99.90
33594;DHT22;19920;52.242;20.940;2022-08-11T19:27:59;20.20;99.90
33594;DHT22;19920;52.242;20.940;2022-08-11T19:30:44;20.10;99.90
33594;DHT22;19920;52.242;20.940;2022-08-11T19:33:29;20.10;99.90
33594;DHT22;19920;52.242;20.940;2022-08-11T19:36:13;20.10;99.90
33594;DHT22;19920;52.242;20.940;2022-08-11T19:38:58;20.20;99.90
33594;DHT22;19920;52.242;20.940;2022-08-11T19:41:42;20.20;99.90